TAM3672 SBGL-SBSV
Flight info
| Callsign | TAM3672 |
|---|---|
| Flight time | N/A |
| Altitude | 35000 |
| Route | IMBAP UZ42 SIRAP DCT OSAGU DCT ZUMBA |
| Aircraft | A320/M-SDE3FGHIRWY/LB1 |
Departure
| Time | N/A |
|---|---|
| Airport | Rio Galeão – Tom Jobim International Airport (SBGL) |
Arrival
| Time | 2026-05-06 16:48 |
|---|---|
| Airport | Deputado Luiz Eduardo Magalhães International Airport (SBSV) |
| Time | Latitude | Longitude | Altitude | Speed | Heading |
|---|---|---|---|---|---|
| 2026-05-06 16:05 | -16.77866 | -40.49866 | 35157 ft | 477 kts | 23° |
| 2026-05-06 16:06 | -16.71747 | -40.47151 | 35167 ft | 477 kts | 23° |
| 2026-05-06 16:06 | -16.65674 | -40.44461 | 35163 ft | 476 kts | 23° |
| 2026-05-06 16:07 | -16.59573 | -40.41758 | 35163 ft | 476 kts | 23° |
| 2026-05-06 16:07 | -16.53464 | -40.39054 | 35158 ft | 476 kts | 23° |
| 2026-05-06 16:08 | -16.47360 | -40.36356 | 35153 ft | 476 kts | 23° |
| 2026-05-06 16:08 | -16.41258 | -40.33653 | 35139 ft | 476 kts | 23° |
| 2026-05-06 16:09 | -16.35157 | -40.30957 | 35140 ft | 476 kts | 23° |
| 2026-05-06 16:09 | -16.29049 | -40.28267 | 35131 ft | 477 kts | 22° |
| 2026-05-06 16:10 | -16.22942 | -40.25577 | 35132 ft | 477 kts | 23° |
| 2026-05-06 16:10 | -16.16836 | -40.22889 | 35144 ft | 476 kts | 22° |
| 2026-05-06 16:11 | -16.10736 | -40.20206 | 35134 ft | 475 kts | 22° |
| 2026-05-06 16:11 | -16.04687 | -40.17542 | 35141 ft | 475 kts | 22° |
| 2026-05-06 16:12 | -15.98597 | -40.14867 | 35142 ft | 475 kts | 23° |
| 2026-05-06 16:12 | -15.92509 | -40.12182 | 35130 ft | 475 kts | 22° |
| 2026-05-06 16:13 | -15.86420 | -40.09505 | 35128 ft | 475 kts | 22° |
| 2026-05-06 16:13 | -15.80323 | -40.06839 | 35127 ft | 475 kts | 22° |
| 2026-05-06 16:14 | -15.74234 | -40.04166 | 35131 ft | 475 kts | 22° |
| 2026-05-06 16:14 | -15.68139 | -40.01496 | 35127 ft | 475 kts | 22° |
| 2026-05-06 16:15 | -15.62050 | -39.98833 | 35134 ft | 475 kts | 22° |
| 2026-05-06 16:15 | -15.55964 | -39.96171 | 35139 ft | 475 kts | 22° |
| 2026-05-06 16:16 | -15.49889 | -39.93503 | 35136 ft | 474 kts | 22° |
| 2026-05-06 16:16 | -15.43805 | -39.90840 | 35139 ft | 474 kts | 22° |
| 2026-05-06 16:17 | -15.37722 | -39.88183 | 35128 ft | 475 kts | 22° |
| 2026-05-06 16:17 | -15.31638 | -39.85528 | 35132 ft | 475 kts | 22° |
| 2026-05-06 16:18 | -15.25546 | -39.82873 | 35120 ft | 475 kts | 22° |
| 2026-05-06 16:18 | -15.19455 | -39.80220 | 35137 ft | 474 kts | 22° |
| 2026-05-06 16:19 | -15.13418 | -39.77591 | 35133 ft | 474 kts | 22° |
| 2026-05-06 16:19 | -15.07341 | -39.74941 | 35131 ft | 473 kts | 22° |
| 2026-05-06 16:20 | -15.02260 | -39.72727 | 35127 ft | 473 kts | 22° |
| 2026-05-06 16:20 | -14.96252 | -39.70046 | 35127 ft | 473 kts | 24° |
| 2026-05-06 16:21 | -14.90347 | -39.67043 | 35108 ft | 473 kts | 26° |
| 2026-05-06 16:21 | -14.84493 | -39.63909 | 35100 ft | 473 kts | 26° |
| 2026-05-06 16:22 | -14.78610 | -39.60839 | 35096 ft | 473 kts | 25° |
| 2026-05-06 16:22 | -14.72698 | -39.57840 | 35095 ft | 474 kts | 25° |
| 2026-05-06 16:23 | -14.66782 | -39.54836 | 35119 ft | 472 kts | 25° |
| 2026-05-06 16:23 | -14.60900 | -39.51827 | 35111 ft | 471 kts | 25° |
| 2026-05-06 16:24 | -14.55023 | -39.48824 | 35093 ft | 472 kts | 25° |
| 2026-05-06 16:24 | -14.49125 | -39.45817 | 34901 ft | 474 kts | 25° |
| 2026-05-06 16:25 | -14.46169 | -39.44307 | 33791 ft | 475 kts | 25° |
| 2026-05-06 16:25 | -14.43261 | -39.42826 | 32741 ft | 470 kts | 25° |
| 2026-05-06 16:25 | -14.40361 | -39.41345 | 31866 ft | 464 kts | 25° |
| 2026-05-06 16:25 | -14.37488 | -39.39877 | 31304 ft | 458 kts | 25° |
| 2026-05-06 16:26 | -14.34646 | -39.38427 | 30746 ft | 455 kts | 25° |
| 2026-05-06 16:26 | -14.31833 | -39.36996 | 30386 ft | 446 kts | 25° |
| 2026-05-06 16:26 | -14.29071 | -39.35589 | 29583 ft | 439 kts | 25° |
| 2026-05-06 16:26 | -14.26350 | -39.34203 | 29132 ft | 434 kts | 25° |
| 2026-05-06 16:27 | -14.23658 | -39.32833 | 28649 ft | 429 kts | 25° |
| 2026-05-06 16:27 | -14.20996 | -39.31475 | 28168 ft | 424 kts | 25° |
| 2026-05-06 16:27 | -14.18366 | -39.30134 | 27703 ft | 420 kts | 25° |
| 2026-05-06 16:27 | -14.15753 | -39.28805 | 27249 ft | 416 kts | 25° |
| 2026-05-06 16:28 | -14.13164 | -39.27492 | 26775 ft | 413 kts | 24° |
| 2026-05-06 16:28 | -14.10594 | -39.26188 | 26306 ft | 410 kts | 25° |
| 2026-05-06 16:28 | -14.08044 | -39.24895 | 25826 ft | 407 kts | 24° |
| 2026-05-06 16:28 | -14.05508 | -39.23610 | 25333 ft | 405 kts | 24° |
| 2026-05-06 16:29 | -14.02984 | -39.22328 | 24841 ft | 404 kts | 24° |
| 2026-05-06 16:29 | -14.00461 | -39.21046 | 24329 ft | 403 kts | 24° |
| 2026-05-06 16:29 | -13.97947 | -39.19770 | 23824 ft | 403 kts | 24° |
| 2026-05-06 16:29 | -13.95434 | -39.18493 | 23260 ft | 403 kts | 25° |
| 2026-05-06 16:30 | -13.92926 | -39.17220 | 22747 ft | 401 kts | 25° |
| 2026-05-06 16:30 | -13.91275 | -39.16382 | 22419 ft | 399 kts | 25° |
| 2026-05-06 16:30 | -13.87987 | -39.14714 | 21766 ft | 396 kts | 25° |
| 2026-05-06 16:30 | -13.85524 | -39.13466 | 21303 ft | 394 kts | 25° |
| 2026-05-06 16:31 | -13.83075 | -39.12226 | 20843 ft | 392 kts | 25° |
| 2026-05-06 16:31 | -13.80655 | -39.10998 | 20544 ft | 384 kts | 25° |
| 2026-05-06 16:31 | -13.78262 | -39.09785 | 20060 ft | 383 kts | 25° |
| 2026-05-06 16:31 | -13.75891 | -39.08583 | 19472 ft | 378 kts | 26° |
| 2026-05-06 16:32 | -13.73563 | -39.07403 | 18933 ft | 368 kts | 26° |
| 2026-05-06 16:32 | -13.71304 | -39.06259 | 18481 ft | 356 kts | 26° |
| 2026-05-06 16:32 | -13.69233 | -39.04940 | 18028 ft | 349 kts | 38° |
| 2026-05-06 16:32 | -13.67340 | -39.03382 | 17608 ft | 348 kts | 39° |
| 2026-05-06 16:33 | -13.65457 | -39.01832 | 17188 ft | 346 kts | 39° |
| 2026-05-06 16:33 | -13.63580 | -39.00291 | 16781 ft | 344 kts | 39° |
| 2026-05-06 16:33 | -13.61711 | -38.98756 | 16373 ft | 343 kts | 39° |
| 2026-05-06 16:34 | -13.58000 | -38.95703 | 15583 ft | 340 kts | 39° |
| 2026-05-06 16:34 | -13.56155 | -38.94187 | 15195 ft | 339 kts | 39° |
| 2026-05-06 16:34 | -13.54313 | -38.92677 | 14811 ft | 338 kts | 39° |
| 2026-05-06 16:34 | -13.52477 | -38.91171 | 14407 ft | 337 kts | 39° |
| 2026-05-06 16:35 | -13.50649 | -38.89671 | 14024 ft | 336 kts | 39° |
| 2026-05-06 16:35 | -13.48830 | -38.88180 | 13649 ft | 333 kts | 40° |
| 2026-05-06 16:35 | -13.47038 | -38.86713 | 13231 ft | 325 kts | 40° |
| 2026-05-06 16:35 | -13.45298 | -38.85289 | 12831 ft | 314 kts | 40° |
| 2026-05-06 16:36 | -13.43620 | -38.83916 | 12465 ft | 303 kts | 40° |
| 2026-05-06 16:36 | -13.42000 | -38.82591 | 12104 ft | 293 kts | 40° |
| 2026-05-06 16:36 | -13.40432 | -38.81306 | 11753 ft | 284 kts | 39° |
| 2026-05-06 16:36 | -13.38930 | -38.80077 | 11400 ft | 276 kts | 41° |
| 2026-05-06 16:37 | -13.37444 | -38.78857 | 11059 ft | 272 kts | 40° |
| 2026-05-06 16:37 | -13.35969 | -38.77644 | 10709 ft | 271 kts | 41° |
| 2026-05-06 16:37 | -13.34505 | -38.76443 | 10332 ft | 268 kts | 40° |
| 2026-05-06 16:37 | -13.33044 | -38.75243 | 9968 ft | 270 kts | 41° |
| 2026-05-06 16:38 | -13.31574 | -38.74033 | 9562 ft | 271 kts | 41° |
| 2026-05-06 16:38 | -13.30104 | -38.72824 | 9193 ft | 270 kts | 41° |
| 2026-05-06 16:38 | -13.28637 | -38.71619 | 8822 ft | 270 kts | 41° |
| 2026-05-06 16:38 | -13.27168 | -38.70415 | 8435 ft | 270 kts | 41° |
| 2026-05-06 16:39 | -13.25698 | -38.69211 | 8057 ft | 270 kts | 41° |
| 2026-05-06 16:39 | -13.24229 | -38.68008 | 7663 ft | 270 kts | 41° |
| 2026-05-06 16:39 | -13.22756 | -38.66802 | 7252 ft | 271 kts | 41° |
| 2026-05-06 16:39 | -13.21283 | -38.65598 | 6863 ft | 271 kts | 42° |
| 2026-05-06 16:40 | -13.19805 | -38.64389 | 6446 ft | 272 kts | 41° |
| 2026-05-06 16:40 | -13.18328 | -38.63176 | 6015 ft | 272 kts | 42° |
| 2026-05-06 16:40 | -13.16848 | -38.61962 | 5591 ft | 273 kts | 41° |
| 2026-05-06 16:40 | -13.15365 | -38.60746 | 5161 ft | 273 kts | 41° |
| 2026-05-06 16:41 | -13.13888 | -38.59539 | 4865 ft | 267 kts | 41° |
| 2026-05-06 16:41 | -13.12464 | -38.58382 | 4724 ft | 256 kts | 41° |
| 2026-05-06 16:41 | -13.11098 | -38.57274 | 4566 ft | 245 kts | 41° |
| 2026-05-06 16:41 | -13.09788 | -38.56212 | 4443 ft | 235 kts | 42° |
| 2026-05-06 16:42 | -13.08523 | -38.55185 | 4338 ft | 227 kts | 42° |
| 2026-05-06 16:42 | -13.07308 | -38.54198 | 4248 ft | 219 kts | 42° |
| 2026-05-06 16:42 | -13.06124 | -38.53236 | 4156 ft | 220 kts | 43° |
| 2026-05-06 16:42 | -13.04914 | -38.52301 | 4052 ft | 216 kts | 35° |
| 2026-05-06 16:43 | -13.03538 | -38.51714 | 3933 ft | 215 kts | 17° |
| 2026-05-06 16:43 | -13.02058 | -38.51471 | 3763 ft | 215 kts | 11° |
| 2026-05-06 16:43 | -13.00598 | -38.51255 | 3627 ft | 207 kts | 11° |
| 2026-05-06 16:43 | -12.99214 | -38.51049 | 3508 ft | 196 kts | 12° |
| 2026-05-06 16:44 | -12.97900 | -38.50851 | 3416 ft | 186 kts | 13° |
| 2026-05-06 16:44 | -12.96612 | -38.50644 | 3310 ft | 191 kts | 16° |
| 2026-05-06 16:44 | -12.95418 | -38.50107 | 3099 ft | 184 kts | 40° |
| 2026-05-06 16:44 | -12.94530 | -38.49201 | 2945 ft | 179 kts | 62° |
| 2026-05-06 16:45 | -12.94024 | -38.48068 | 2754 ft | 173 kts | 82° |
| 2026-05-06 16:45 | -12.93783 | -38.46870 | 2543 ft | 172 kts | 82° |
| 2026-05-06 16:45 | -12.93543 | -38.45674 | 2334 ft | 170 kts | 83° |
| 2026-05-06 16:45 | -12.93306 | -38.44492 | 2124 ft | 170 kts | 82° |
| 2026-05-06 16:46 | -12.93071 | -38.43318 | 1889 ft | 163 kts | 82° |
| 2026-05-06 16:46 | -12.92851 | -38.42219 | 1679 ft | 153 kts | 82° |
| 2026-05-06 16:46 | -12.92640 | -38.41167 | 1476 ft | 147 kts | 84° |
| 2026-05-06 16:46 | -12.92434 | -38.40135 | 1306 ft | 146 kts | 83° |
| 2026-05-06 16:47 | -12.92232 | -38.39122 | 1112 ft | 145 kts | 84° |
| 2026-05-06 16:47 | -12.92033 | -38.38125 | 935 ft | 147 kts | 82° |
| 2026-05-06 16:47 | -12.91827 | -38.37098 | 755 ft | 148 kts | 86° |
| 2026-05-06 16:47 | -12.91623 | -38.36078 | 576 ft | 148 kts | 86° |
| 2026-05-06 16:48 | -12.91416 | -38.35045 | 392 ft | 149 kts | 83° |
| 2026-05-06 16:48 | -12.91209 | -38.34008 | 175 ft | 149 kts | 82° |
| 2026-05-06 16:48 | -12.91008 | -38.32993 | 30 ft | 133 kts | 78° |
| 2026-05-06 16:48 | -12.90878 | -38.32355 | 40 ft | 42 kts | 78° |
| 2026-05-06 16:49 | -12.90874 | -38.32203 | 41 ft | 8 kts | 154° |
| 2026-05-06 16:49 | -12.90922 | -38.32224 | 38 ft | 9 kts | 217° |
| 2026-05-06 16:49 | -12.90980 | -38.32270 | 38 ft | 12 kts | 218° |
| 2026-05-06 16:49 | -12.91036 | -38.32342 | 38 ft | 14 kts | 255° |
| 2026-05-06 16:50 | -12.91053 | -38.32436 | 37 ft | 13 kts | 258° |
| 2026-05-06 16:50 | -12.91071 | -38.32524 | 36 ft | 12 kts | 258° |
| 2026-05-06 16:50 | -12.91088 | -38.32609 | 35 ft | 12 kts | 258° |
| 2026-05-06 16:50 | -12.91105 | -38.32690 | 33 ft | 11 kts | 258° |
| 2026-05-06 16:51 | -12.91120 | -38.32769 | 32 ft | 11 kts | 259° |
| 2026-05-06 16:51 | -12.91135 | -38.32844 | 31 ft | 11 kts | 259° |
| 2026-05-06 16:51 | -12.91149 | -38.32917 | 30 ft | 10 kts | 259° |
| 2026-05-06 16:51 | -12.91163 | -38.32989 | 29 ft | 10 kts | 259° |
| 2026-05-06 16:52 | -12.91176 | -38.33059 | 28 ft | 10 kts | 259° |
| 2026-05-06 16:52 | -12.91197 | -38.33122 | 27 ft | 8 kts | 220° |
| 2026-05-06 16:52 | -12.91257 | -38.33118 | 27 ft | 10 kts | 168° |
| 2026-05-06 16:52 | -12.91329 | -38.33102 | 27 ft | 10 kts | 168° |
| 2026-05-06 16:53 | -12.91375 | -38.33094 | 27 ft | 7 kts | 181° |
| 2026-05-06 16:53 | -12.91399 | -38.33136 | 27 ft | 7 kts | 268° |
| 2026-05-06 16:53 | -12.91397 | -38.33183 | 26 ft | 5 kts | 273° |
| 2026-05-06 16:53 | -12.91396 | -38.33209 | 30 ft | 0 kts | 272° |